Time;durP1;ratioP1;P1;durP2;ratioP2;P2;SDS_P1;SDS_P2;PMS_P1;PMS_P2;Temp;Humidity;BMP_temperature;BMP_pressure;BME280_temperature;BME280_humidity;BME280_pressure;Samples;Min_cycle;Max_cycle;Signal;HPM_P1;HPM_P2
2023/09/10 00:00:16;;;;;;;16.77;11.93;;;;;;;17.69;66.35;101075.50;7400084;19;20351;-72
2023/09/10 00:02:44;;;;;;;13.30;10.50;;;;;;;17.66;66.68;101077.41;7400401;19;20074;-71
2023/09/10 00:05:15;;;;;;;17.67;12.07;;;;;;;17.62;66.44;101073.19;7397246;19;20541;-72
2023/09/10 00:07:44;;;;;;;13.55;12.13;;;;;;;17.59;66.29;101074.16;7400552;19;20095;-71
2023/09/10 00:10:12;;;;;;;12.45;10.82;;;;;;;17.54;66.22;101078.81;7399773;19;20062;-73
2023/09/10 00:12:41;;;;;;;15.57;11.90;;;;;;;17.50;66.38;101078.13;7399622;19;20368;-71
2023/09/10 00:15:10;;;;;;;18.23;13.40;;;;;;;17.47;66.80;101080.91;7397800;19;20015;-71
2023/09/10 00:17:39;;;;;;;14.82;13.32;;;;;;;17.41;66.87;101079.41;7399873;19;20023;-71
2023/09/10 00:20:10;;;;;;;14.75;12.93;;;;;;;17.37;66.98;101074.31;7399841;19;20086;-72
2023/09/10 00:22:43;;;;;;;15.73;13.57;;;;;;;17.32;67.61;101069.19;7399339;19;20030;-71
2023/09/10 00:25:12;;;;;;;15.57;13.25;;;;;;;17.27;67.68;101071.19;7398581;19;20031;-71
2023/09/10 00:27:41;;;;;;;15.95;12.65;;;;;;;17.25;67.47;101073.06;7399459;19;20027;-70
2023/09/10 00:30:11;;;;;;;15.32;13.25;;;;;;;17.19;67.83;101065.38;7398975;19;20541;-72
2023/09/10 00:32:36;;;;;;;15.57;13.35;;;;;;;17.14;68.12;101068.22;7399281;19;20070;-72
2023/09/10 00:35:07;;;;;;;15.32;13.00;;;;;;;17.10;67.95;101069.31;7397478;19;20019;-71
2023/09/10 00:37:35;;;;;;;17.65;13.40;;;;;;;17.06;68.44;101067.69;7397133;19;20171;-70
2023/09/10 00:40:08;;;;;;;18.63;13.80;;;;;;;17.00;68.39;101068.84;7398695;19;20010;-71
2023/09/10 00:42:36;;;;;;;19.42;13.88;;;;;;;16.96;68.47;101066.38;7398735;19;20014;-71
2023/09/10 00:45:05;;;;;;;20.13;14.80;;;;;;;16.90;68.84;101070.97;7397849;19;20081;-71
2023/09/10 00:47:34;;;;;;;17.25;13.98;;;;;;;16.85;68.92;101065.03;7398835;19;20015;-71
2023/09/10 00:50:03;;;;;;;15.40;13.30;;;;;;;16.82;69.02;101069.59;7398343;19;20015;-71
2023/09/10 00:52:32;;;;;;;18.23;12.95;;;;;;;16.80;68.96;101074.13;7398793;19;20006;-71
2023/09/10 00:55:01;;;;;;;13.88;11.95;;;;;;;16.74;69.12;101068.16;7396470;19;20502;-71
2023/09/10 00:57:32;;;;;;;18.25;12.88;;;;;;;16.70;69.25;101066.53;7398160;19;20078;-72
2023/09/10 01:00:03;;;;;;;13.13;11.77;;;;;;;16.68;69.38;101068.41;7397578;19;20019;-71
2023/09/10 01:02:32;;;;;;;13.60;11.48;;;;;;;16.65;69.36;101065.88;7398200;19;20021;-71
2023/09/10 01:05:00;;;;;;;13.27;11.90;;;;;;;16.62;69.38;101066.00;7397278;19;20078;-70
2023/09/10 01:07:29;;;;;;;15.20;12.10;;;;;;;16.60;69.32;101065.19;7398031;19;20010;-71
2023/09/10 01:09:57;;;;;;;12.80;11.10;;;;;;;16.57;69.45;101074.13;7398074;19;20030;-71
2023/09/10 01:12:43;;;;;;;14.73;12.05;;;;;;;16.54;69.59;101065.47;7397776;19;20090;-71
2023/09/10 01:15:19;;;;;;;16.75;12.48;;;;;;;16.50;69.72;101063.88;7397191;19;20029;-69
2023/09/10 01:18:04;;;;;;;12.45;11.18;;;;;;;16.47;69.69;101064.84;7399255;19;20010;-68
2023/09/10 01:20:46;;;;;;;16.15;10.68;;;;;;;16.45;69.69;101072.88;7397535;19;20010;-69
2023/09/10 01:23:17;;;;;;;17.17;12.35;;;;;;;16.41;69.88;101070.41;7398015;19;20031;-70
2023/09/10 01:25:49;;;;;;;13.10;11.48;;;;;;;16.37;70.07;101074.97;7395825;19;20359;-69
2023/09/10 01:28:17;;;;;;;13.68;11.25;;;;;;;16.36;70.14;101067.94;7397373;19;20017;-70
2023/09/10 01:30:46;;;;;;;12.35;10.93;;;;;;;16.34;70.15;101068.94;7397076;19;20020;-70
2023/09/10 01:33:21;;;;;;;11.80;10.70;;;;;;;16.31;70.13;101075.22;7395047;19;20576;-70
2023/09/10 01:35:55;;;;;;;11.40;10.20;;;;;;;16.28;70.22;101072.69;7395197;19;20014;-69
2023/09/10 01:38:31;;;;;;;13.63;10.45;;;;;;;16.25;70.08;101075.44;7397470;19;20082;-70
2023/09/10 01:41:06;;;;;;;11.23;10.10;;;;;;;16.23;70.02;101072.03;7396711;19;20023;-69
2023/09/10 01:43:36;;;;;;;11.18;10.07;;;;;;;16.21;70.25;101068.56;7396549;19;20014;-69
2023/09/10 01:46:06;;;;;;;12.73;10.38;;;;;;;16.18;70.03;101071.34;7395189;19;20015;-69
2023/09/10 01:48:35;;;;;;;11.20;10.05;;;;;;;16.15;70.06;101071.44;7396830;19;20010;-70
2023/09/10 01:51:04;;;;;;;11.23;10.10;;;;;;;16.12;69.83;101078.63;7396510;19;20011;-69
2023/09/10 01:53:32;;;;;;;11.07;9.98;;;;;;;16.10;69.90;101074.31;7396083;19;20494;-70
2023/09/10 01:56:03;;;;;;;11.80;10.60;;;;;;;16.08;70.07;101073.50;7394348;19;20086;-69
2023/09/10 01:58:32;;;;;;;12.73;10.77;;;;;;;16.06;70.25;101073.56;7396915;19;20027;-69
2023/09/10 02:01:00;;;;;;;11.40;10.02;;;;;;;16.04;70.11;101077.19;7396116;19;20533;-69
2023/09/10 02:03:29;;;;;;;13.10;10.45;;;;;;;16.00;70.22;101075.56;7396389;19;20027;-70
2023/09/10 02:05:58;;;;;;;11.65;10.48;;;;;;;15.98;70.27;101078.28;7394904;19;20089;-70
2023/09/10 02:08:27;;;;;;;14.57;11.52;;;;;;;15.96;70.54;101085.41;7395750;19;20366;-69
2023/09/10 02:10:55;;;;;;;21.02;14.55;;;;;;;15.93;70.27;101081.09;7396197;19;20027;-70
2023/09/10 02:13:26;;;;;;;15.73;12.52;;;;;;;15.91;70.45;101076.78;7395559;19;20027;-69
2023/09/10 02:15:55;;;;;;;13.40;10.38;;;;;;;15.88;70.69;101076.91;7394593;19;20078;-70
2023/09/10 02:18:25;;;;;;;13.43;10.57;;;;;;;15.85;70.66;101071.75;7395834;19;20007;-69
2023/09/10 02:20:54;;;;;;;13.75;12.00;;;;;;;15.82;71.03;101069.22;7396719;19;20011;-70
2023/09/10 02:23:23;;;;;;;17.35;13.20;;;;;;;15.77;70.88;101079.94;7393799;19;20014;-69
2023/09/10 02:25:51;;;;;;;13.85;12.40;;;;;;;15.74;71.22;101069.47;7394185;19;20019;-70
2023/09/10 02:28:23;;;;;;;13.48;12.13;;;;;;;15.70;70.96;101074.00;7395283;19;20074;-70
2023/09/10 02:30:54;;;;;;;14.30;11.23;;;;;;;15.69;71.16;101079.38;7395935;19;20082;-69
2023/09/10 02:33:24;;;;;;;11.35;10.15;;;;;;;15.64;71.11;101079.53;7395817;19;20086;-69
2023/09/10 02:35:53;;;;;;;12.77;10.98;;;;;;;15.62;71.21;101079.59;7393589;19;20038;-69
2023/09/10 02:38:21;;;;;;;11.77;9.98;;;;;;;15.61;71.23;101080.50;7395378;19;20082;-69
2023/09/10 02:40:50;;;;;;;14.50;11.30;;;;;;;15.58;71.59;101077.13;7395315;19;20010;-69
2023/09/10 02:43:18;;;;;;;13.40;10.57;;;;;;;15.55;71.64;101077.25;7394969;19;20509;-70
2023/09/10 02:45:47;;;;;;;12.10;10.90;;;;;;;15.53;71.65;101081.72;7393903;19;20011;-69
2023/09/10 02:48:18;;;;;;;12.35;10.18;;;;;;;15.48;71.67;101077.47;7395171;19;20081;-70
2023/09/10 02:50:46;;;;;;;12.18;10.48;;;;;;;15.45;71.77;101084.66;7393885;19;20014;-70
2023/09/10 02:53:15;;;;;;;13.32;10.35;;;;;;;15.42;71.94;101079.50;7394586;19;20490;-70
2023/09/10 02:55:43;;;;;;;13.48;10.65;;;;;;;15.38;72.21;101072.56;7392866;19;20670;-70
2023/09/10 02:58:12;;;;;;;15.20;11.57;;;;;;;15.34;72.25;101074.44;7394467;19;20011;-70
2023/09/10 03:00:40;;;;;;;14.30;11.30;;;;;;;15.31;72.44;101074.56;7394842;19;20018;-69
2023/09/10 03:03:08;;;;;;;13.30;11.48;;;;;;;15.29;72.54;101081.69;7394349;19;20364;-69
2023/09/10 03:05:39;;;;;;;11.88;10.68;;;;;;;15.26;72.57;101080.03;7393016;19;20091;-70
2023/09/10 03:08:08;;;;;;;13.45;11.02;;;;;;;15.19;72.62;101075.00;7394297;19;20360;-69
2023/09/10 03:10:38;;;;;;;17.15;12.00;;;;;;;15.20;72.63;101089.97;7392632;19;20086;-70
2023/09/10 03:13:07;;;;;;;17.65;13.02;;;;;;;15.17;72.51;101085.66;7394366;19;20014;-69
2023/09/10 03:15:35;;;;;;;14.38;11.93;;;;;;;15.15;72.72;101083.06;7392900;19;20034;-69
2023/09/10 03:18:04;;;;;;;13.20;11.15;;;;;;;15.11;72.79;101086.75;7394094;19;20011;-69
2023/09/10 03:20:33;;;;;;;17.27;11.77;;;;;;;15.08;73.06;101081.53;7393944;19;20588;-69
2023/09/10 03:23:06;;;;;;;17.52;12.93;;;;;;;15.05;72.87;101081.66;7393825;19;20011;-69
2023/09/10 03:25:38;;;;;;;16.53;11.77;;;;;;;15.01;72.92;101074.75;7399469;19;20018;-69
2023/09/10 03:28:08;;;;;;;18.92;12.50;;;;;;;15.01;72.93;101073.88;7401154;19;20432;-69
2023/09/10 03:30:36;;;;;;;15.80;12.63;;;;;;;14.98;73.15;101075.72;7401466;19;20414;-69
2023/09/10 03:33:05;;;;;;;15.80;12.70;;;;;;;14.95;73.35;101080.25;7400918;19;20020;-70
2023/09/10 03:35:34;;;;;;;16.25;12.38;;;;;;;14.92;73.09;101075.91;7399293;19;20022;-70
2023/09/10 03:38:06;;;;;;;20.63;14.02;;;;;;;14.90;73.39;101077.78;7401232;19;20010;-70
2023/09/10 03:40:34;;;;;;;16.33;13.32;;;;;;;14.86;73.59;101070.88;7400867;19;20014;-69
2023/09/10 03:43:03;;;;;;;16.15;12.15;;;;;;;14.85;73.53;101074.44;7400794;19;20014;-69
2023/09/10 03:45:31;;;;;;;17.30;13.05;;;;;;;14.82;73.69;101066.59;7399129;19;20039;-69
2023/09/10 03:48:00;;;;;;;14.35;11.95;;;;;;;14.80;73.90;101065.81;7400378;19;20010;-69
2023/09/10 03:50:28;;;;;;;14.15;12.35;;;;;;;14.79;73.99;101062.28;7400768;19;20019;-69
2023/09/10 03:52:57;;;;;;;15.45;12.35;;;;;;;14.77;73.93;101063.25;7400711;19;20027;-69
2023/09/10 03:55:34;;;;;;;16.52;12.27;;;;;;;14.76;74.08;101069.44;7397554;19;20031;-69
2023/09/10 03:58:03;;;;;;;15.73;12.38;;;;;;;14.72;74.21;101068.72;7401103;19;20023;-69
2023/09/10 04:00:31;;;;;;;14.43;11.98;;;;;;;14.70;74.26;101065.25;7400416;19;20018;-69
2023/09/10 04:03:00;;;;;;;14.07;12.63;;;;;;;14.69;74.11;101063.50;7397742;19;20027;-69
2023/09/10 04:05:29;;;;;;;14.48;12.57;;;;;;;14.66;74.43;101061.84;7399506;19;20542;-70
2023/09/10 04:07:57;;;;;;;13.75;12.25;;;;;;;14.65;74.24;101062.75;7400688;19;20013;-70
2023/09/10 04:10:27;;;;;;;13.63;12.18;;;;;;;14.64;74.29;101065.41;7399977;19;20010;-70
2023/09/10 04:12:58;;;;;;;13.48;11.98;;;;;;;14.62;74.84;101076.03;7400437;19;20011;-69
2023/09/10 04:15:26;;;;;;;15.32;12.40;;;;;;;14.61;74.70;101073.47;7397437;19;20477;-69
2023/09/10 04:17:55;;;;;;;14.60;13.07;;;;;;;14.59;74.85;101075.28;7400141;19;20042;-70
2023/09/10 04:20:24;;;;;;;15.10;12.65;;;;;;;14.55;74.92;101071.00;7399494;19;20354;-70
2023/09/10 04:22:52;;;;;;;13.82;12.35;;;;;;;14.53;74.98;101078.13;7399573;19;20014;-70
2023/09/10 04:25:21;;;;;;;15.25;13.20;;;;;;;14.54;75.27;101082.50;7398097;19;20015;-70
2023/09/10 04:27:49;;;;;;;16.40;13.63;;;;;;;14.50;75.21;101087.84;7399823;19;20027;-70
2023/09/10 04:30:20;;;;;;;14.95;12.60;;;;;;;14.52;75.22;101086.94;7399724;19;20090;-70
2023/09/10 04:32:49;;;;;;;27.40;21.33;;;;;;;14.49;75.25;101088.78;7399232;19;20536;-69
2023/09/10 04:35:18;;;;;;;29.85;22.73;;;;;;;14.47;75.48;101090.59;7396662;19;20011;-70
2023/09/10 04:37:46;;;;;;;26.52;18.83;;;;;;;14.47;75.81;101095.88;7398883;19;20018;-69
2023/09/10 04:40:14;;;;;;;16.45;13.85;;;;;;;14.44;75.58;101090.69;7399196;19;20078;-69
2023/09/10 04:42:43;;;;;;;15.10;13.52;;;;;;;14.44;75.52;101095.13;7399282;19;20028;-69
2023/09/10 04:45:12;;;;;;;15.63;13.27;;;;;;;14.42;75.86;101091.66;7397221;19;20011;-69
2023/09/10 04:47:43;;;;;;;16.60;13.82;;;;;;;14.40;76.06;101098.78;7398820;19;20010;-68
2023/09/10 04:50:12;;;;;;;14.75;12.48;;;;;;;14.38;75.97;101106.75;7398566;19;20019;-69
2023/09/10 04:52:41;;;;;;;16.45;13.20;;;;;;;14.39;75.92;101107.59;7398429;19;20006;-69
2023/09/10 04:55:09;;;;;;;12.52;11.27;;;;;;;14.36;76.10;101107.72;7394623;19;20014;-69
2023/09/10 04:57:38;;;;;;;13.80;12.35;;;;;;;14.34;76.08;101110.38;7396354;19;20090;-69
2023/09/10 05:00:09;;;;;;;14.65;12.23;;;;;;;14.33;75.89;101109.53;7396437;19;20015;-69
2023/09/10 05:02:37;;;;;;;16.50;12.38;;;;;;;14.30;76.02;101109.59;7393306;19;20486;-70
2023/09/10 05:05:09;;;;;;;13.75;12.38;;;;;;;14.30;76.00;101114.88;7394547;19;20081;-69
2023/09/10 05:07:37;;;;;;;14.38;12.88;;;;;;;14.29;76.28;101105.25;7395951;19;20427;-70
2023/09/10 05:10:06;;;;;;;14.10;12.63;;;;;;;14.29;76.00;101113.19;7395690;19;20028;-70
2023/09/10 05:12:35;;;;;;;13.82;12.27;;;;;;;14.28;76.20;101111.44;7395711;19;20391;-69
2023/09/10 05:15:03;;;;;;;13.90;12.45;;;;;;;14.29;76.16;101113.19;7394531;19;20014;-70
2023/09/10 05:17:32;;;;;;;14.30;12.50;;;;;;;14.28;76.24;101122.00;7395907;19;20011;-70
2023/09/10 05:20:00;;;;;;;22.27;13.75;;;;;;;14.29;76.13;101115.81;7396000;19;20373;-69
2023/09/10 05:22:32;;;;;;;15.32;13.05;;;;;;;14.30;76.35;101114.03;7396350;19;20032;-71
2023/09/10 05:25:00;;;;;;;14.65;13.07;;;;;;;14.31;76.20;101115.75;7394855;19;20018;-71
2023/09/10 05:27:28;;;;;;;15.23;13.35;;;;;;;14.32;76.50;101121.00;7395648;19;20359;-70
2023/09/10 05:29:57;;;;;;;16.23;13.93;;;;;;;14.34;76.47;101113.91;7395234;19;20007;-69
2023/09/10 05:32:25;;;;;;;16.00;13.80;;;;;;;14.38;76.66;101125.22;7395574;19;20027;-71
2023/09/10 05:34:54;;;;;;;17.27;13.85;;;;;;;14.41;76.90;101126.91;7392429;19;20066;-70
2023/09/10 05:37:22;;;;;;;15.77;13.02;;;;;;;14.43;76.86;101119.78;7392705;19;20090;-70
2023/09/10 05:39:54;;;;;;;15.23;13.80;;;;;;;14.47;76.95;101126.72;7395364;19;20015;-69
2023/09/10 05:42:23;;;;;;;14.45;13.02;;;;;;;14.50;76.91;101129.25;7394913;19;20024;-70
2023/09/10 05:44:53;;;;;;;16.63;14.00;;;;;;;14.54;76.75;101127.38;7394030;19;20070;-70
2023/09/10 05:47:22;;;;;;;14.60;13.15;;;;;;;14.56;76.88;101125.53;7393928;19;20015;-70
2023/09/10 05:49:51;;;;;;;16.05;13.60;;;;;;;14.61;76.85;101128.91;7394741;19;20478;-70
2023/09/10 05:52:19;;;;;;;16.48;13.63;;;;;;;14.65;76.89;101130.56;7395006;19;20073;-69
2023/09/10 05:55:00;;;;;;;10.55;8.95;;;;;;;14.70;76.98;101127.75;6425919;19;22196171;-70
2023/09/10 05:57:34;;;;;;;15.45;13.80;;;;;;;14.75;76.91;101128.50;7395205;19;20096;-71
2023/09/10 06:00:03;;;;;;;16.10;14.38;;;;;;;14.81;77.06;101126.50;7396476;19;20011;-70
2023/09/10 06:02:31;;;;;;;17.30;14.60;;;;;;;14.87;77.14;101129.84;7396305;19;20046;-69
2023/09/10 06:05:00;;;;;;;17.60;14.98;;;;;;;14.93;76.89;101137.56;7394835;19;20027;-70
2023/09/10 06:07:28;;;;;;;16.10;14.48;;;;;;;14.96;77.11;101126.88;7396042;19;20095;-70
2023/09/10 06:09:59;;;;;;;17.27;14.98;;;;;;;15.06;77.16;101130.09;7393784;19;20510;-69
2023/09/10 06:12:28;;;;;;;16.77;15.02;;;;;;;15.13;76.81;101134.25;7395635;19;20498;-68
2023/09/10 06:14:56;;;;;;;15.75;14.05;;;;;;;15.19;76.82;101131.41;7393946;19;20015;-71
2023/09/10 06:17:25;;;;;;;17.38;15.32;;;;;;;15.27;77.14;101133.78;7394247;19;20077;-69
2023/09/10 06:19:53;;;;;;;17.85;15.35;;;;;;;15.34;77.03;101135.25;7394183;19;20078;-68
2023/09/10 06:22:22;;;;;;;18.25;15.65;;;;;;;15.42;77.05;101140.28;7395823;19;20018;-68
2023/09/10 06:24:50;;;;;;;16.98;14.82;;;;;;;15.50;77.03;101140.88;7394744;19;20086;-69
2023/09/10 06:27:22;;;;;;;15.98;14.35;;;;;;;15.58;76.88;101137.94;7395619;19;20020;-70
2023/09/10 06:29:50;;;;;;;18.02;15.35;;;;;;;15.67;76.62;101136.75;7396022;19;20045;-70
2023/09/10 06:32:18;;;;;;;16.65;14.48;;;;;;;15.75;76.71;101130.25;7395464;19;20015;-70
2023/09/10 06:34:47;;;;;;;16.15;14.10;;;;;;;15.84;76.65;101137.00;7394686;19;20014;-69
2023/09/10 06:37:15;;;;;;;16.92;14.73;;;;;;;15.93;76.85;101138.44;7393472;19;20411;-70
2023/09/10 06:39:44;;;;;;;17.30;14.95;;;;;;;16.02;76.76;101137.25;7393577;19;20019;-69
2023/09/10 06:42:13;;;;;;;18.38;14.77;;;;;;;16.10;76.54;101130.72;7394595;19;20509;-70
2023/09/10 06:44:45;;;;;;;16.75;14.95;;;;;;;16.20;76.53;101128.59;7392875;19;20011;-68
2023/09/10 06:47:14;;;;;;;16.98;15.23;;;;;;;16.30;76.54;101134.38;7392977;19;20014;-72
2023/09/10 06:49:42;;;;;;;17.55;14.73;;;;;;;16.40;76.40;101133.09;7395282;19;20014;-70
2023/09/10 06:52:11;;;;;;;17.40;15.48;;;;;;;16.51;76.11;101143.25;7394765;19;20015;-69
2023/09/10 06:54:39;;;;;;;16.15;14.45;;;;;;;16.59;76.21;101127.94;7393176;19;20021;-70
2023/09/10 06:57:15;;;;;;;16.90;14.23;;;;;;;16.72;76.48;101138.00;7394171;19;20090;-70
2023/09/10 06:59:46;;;;;;;17.08;15.05;;;;;;;16.83;76.20;101143.72;7399038;19;20544;-70
2023/09/10 07:02:14;;;;;;;16.63;14.90;;;;;;;16.93;76.18;101144.22;7399656;19;20014;-70
2023/09/10 07:04:47;;;;;;;16.05;14.45;;;;;;;17.02;76.14;101141.22;7401262;19;20078;-70
2023/09/10 07:07:16;;;;;;;15.60;13.93;;;;;;;17.10;75.68;101139.06;7401583;19;20457;-67
2023/09/10 07:09:44;;;;;;;17.10;15.40;;;;;;;17.23;75.99;101143.84;7401418;19;20081;-65
2023/09/10 07:12:13;;;;;;;16.42;14.80;;;;;;;17.33;75.58;101144.31;7398519;19;20006;-65
2023/09/10 07:14:42;;;;;;;15.27;13.68;;;;;;;17.42;75.02;101150.06;7398427;19;20421;-67
2023/09/10 07:17:13;;;;;;;16.25;14.55;;;;;;;17.52;74.94;101150.53;7399879;19;20039;-65
2023/09/10 07:19:43;;;;;;;15.20;13.60;;;;;;;17.62;74.72;101140.38;7402037;19;20081;-67
2023/09/10 07:22:11;;;;;;;17.50;14.05;;;;;;;17.73;74.20;101142.53;7401363;19;20013;-69
2023/09/10 07:24:39;;;;;;;13.38;12.05;;;;;;;17.84;73.74;101150.00;7400550;19;20007;-66
2023/09/10 07:27:08;;;;;;;17.60;11.77;;;;;;;17.94;73.67;101143.38;7401371;19;20073;-67
2023/09/10 07:29:36;;;;;;;14.23;12.80;;;;;;;18.04;73.03;101146.47;7398108;19;20588;-67
2023/09/10 07:32:05;;;;;;;16.08;12.55;;;;;;;18.16;72.70;101142.38;7400909;19;20010;-68
2023/09/10 07:34:36;;;;;;;14.82;12.27;;;;;;;18.25;72.45;101144.59;7400516;19;20018;-68
2023/09/10 07:37:05;;;;;;;13.85;11.35;;;;;;;18.35;72.34;101147.66;7398373;19;20031;-67
2023/09/10 07:39:33;;;;;;;13.07;11.60;;;;;;;18.45;71.91;101150.75;7398329;19;20100;-66
2023/09/10 07:42:02;;;;;;;12.30;11.00;;;;;;;18.54;71.67;101151.16;7398332;19;20015;-68
2023/09/10 07:44:30;;;;;;;13.23;10.38;;;;;;;18.65;71.17;101147.09;7399808;19;20078;-67
2023/09/10 07:46:59;;;;;;;11.82;10.65;;;;;;;18.75;70.90;101152.84;7400605;19;20017;-67
2023/09/10 07:49:28;;;;;;;12.30;10.98;;;;;;;18.85;70.58;101148.78;7398004;19;20035;-66
2023/09/10 07:51:59;;;;;;;13.18;10.73;;;;;;;18.95;70.53;101150.06;7400037;19;20347;-67
2023/09/10 07:54:27;;;;;;;12.02;10.75;;;;;;;19.07;70.21;101155.69;7397475;19;20541;-67
2023/09/10 07:56:56;;;;;;;14.10;11.40;;;;;;;19.17;69.89;101155.16;7398152;19;20024;-66
2023/09/10 07:59:24;;;;;;;12.25;10.23;;;;;;;19.27;69.70;101150.25;7397461;19;20082;-66
2023/09/10 08:01:52;;;;;;;11.95;10.55;;;;;;;19.37;69.47;101154.13;7399783;19;20024;-67
2023/09/10 08:04:21;;;;;;;11.57;10.30;;;;;;;19.48;69.08;101158.03;7397672;19;20018;-67
2023/09/10 08:06:50;;;;;;;11.98;9.75;;;;;;;19.57;69.12;101156.69;7400076;19;20074;-67
2023/09/10 08:09:21;;;;;;;13.60;10.70;;;;;;;19.67;68.64;101157.91;7397135;19;20036;-66
2023/09/10 08:11:50;;;;;;;12.85;10.93;;;;;;;19.76;68.39;101152.06;7397246;19;20478;-66
2023/09/10 08:14:18;;;;;;;11.60;10.40;;;;;;;19.86;68.15;101153.31;7397487;19;20031;-68
2023/09/10 08:16:47;;;;;;;11.75;9.43;;;;;;;19.95;68.04;101154.63;7399009;19;20078;-66
2023/09/10 08:19:15;;;;;;;11.73;10.05;;;;;;;20.04;67.85;101152.41;7399462;19;20013;-68
2023/09/10 08:21:44;;;;;;;12.10;9.60;;;;;;;20.14;66.92;101153.63;7399771;19;20078;-66
2023/09/10 08:24:12;;;;;;;9.90;9.00;;;;;;;20.22;66.85;101158.50;7399258;19;20019;-67
2023/09/10 08:26:43;;;;;;;11.32;9.55;;;;;;;20.31;66.37;101153.53;7399552;19;20011;-67
2023/09/10 08:29:12;;;;;;;12.05;9.52;;;;;;;20.40;65.94;101153.97;7399515;19;20014;-68
2023/09/10 08:31:40;;;;;;;10.30;9.30;;;;;;;20.50;65.58;101158.69;7398710;19;20367;-68
2023/09/10 08:34:09;;;;;;;11.98;9.27;;;;;;;20.59;65.43;101156.44;7396706;19;20070;-68
2023/09/10 08:36:37;;;;;;;10.20;9.20;;;;;;;20.68;64.61;101147.91;7398232;19;20502;-67
2023/09/10 08:39:06;;;;;;;11.65;9.48;;;;;;;20.78;64.84;101150.94;7399128;19;20079;-68
2023/09/10 08:41:40;;;;;;;9.10;8.20;;;;;;;20.86;63.83;101147.81;7396770;19;20010;-67
2023/09/10 08:44:13;;;;;;;12.70;8.93;;;;;;;20.95;63.63;101139.28;7399048;19;20017;-67
2023/09/10 08:46:43;;;;;;;10.90;9.48;;;;;;;21.03;63.36;101141.47;7396654;19;20010;-67
2023/09/10 08:49:14;;;;;;;8.75;7.85;;;;;;;21.13;62.64;101148.84;7399048;19;20077;-67
2023/09/10 08:51:43;;;;;;;12.05;8.73;;;;;;;21.23;62.85;101148.28;7396815;19;20035;-67
2023/09/10 08:54:13;;;;;;;10.90;8.25;;;;;;;21.34;62.20;101144.97;7397866;19;20521;-68
2023/09/10 08:56:42;;;;;;;9.43;8.52;;;;;;;21.43;62.05;101147.06;7396294;19;20086;-67
2023/09/10 08:59:15;;;;;;;9.70;7.72;;;;;;;21.53;61.35;101150.91;7396102;19;20087;-66
2023/09/10 09:01:47;;;;;;;9.88;8.38;;;;;;;21.64;60.70;101140.44;7398784;19;20082;-68
2023/09/10 09:04:17;;;;;;;10.95;8.20;;;;;;;21.78;60.06;101144.06;7395470;19;20351;-67
2023/09/10 09:06:50;;;;;;;9.63;7.63;;;;;;;21.88;60.01;101144.38;7398087;19;20387;-67
2023/09/10 09:09:21;;;;;;;8.73;7.10;;;;;;;21.97;59.76;101144.63;7398092;19;20010;-68
2023/09/10 09:11:51;;;;;;;8.43;7.65;;;;;;;22.06;59.34;101139.66;7397380;19;20502;-67
2023/09/10 09:14:23;;;;;;;8.75;7.38;;;;;;;22.18;58.73;101140.66;7397320;19;20105;-67
2023/09/10 09:16:53;;;;;;;8.73;7.72;;;;;;;22.26;59.00;101133.88;7397757;19;20066;-68
2023/09/10 09:19:25;;;;;;;9.95;6.90;;;;;;;22.38;58.54;101139.41;7395417;19;20541;-67
2023/09/10 09:21:54;;;;;;;8.65;7.20;;;;;;;22.48;57.80;101137.84;7393098;19;20074;-67
2023/09/10 09:24:23;;;;;;;11.60;7.38;;;;;;;22.59;57.37;101137.13;7396177;19;20019;-68
2023/09/10 09:26:55;;;;;;;9.40;6.50;;;;;;;22.68;56.92;101135.69;7394873;19;20015;-69
2023/09/10 09:29:27;;;;;;;9.73;6.93;;;;;;;22.82;55.80;101146.28;7395195;19;20019;-67
2023/09/10 09:31:56;;;;;;;7.78;6.57;;;;;;;22.97;55.92;101141.72;7395797;19;20019;-66
2023/09/10 09:34:25;;;;;;;9.15;6.75;;;;;;;23.14;55.59;101142.38;7395965;19;20030;-67
2023/09/10 09:36:54;;;;;;;7.07;6.38;;;;;;;23.24;55.08;101133.66;7395290;19;20014;-67
2023/09/10 09:39:22;;;;;;;9.27;6.47;;;;;;;23.36;54.60;101133.78;7395385;19;20011;-68
2023/09/10 09:41:53;;;;;;;7.63;6.72;;;;;;;23.47;54.28;101144.59;7397157;19;20006;-66
2023/09/10 09:44:22;;;;;;;7.95;6.80;;;;;;;23.56;54.00;101143.94;7394853;19;20529;-66
2023/09/10 09:46:58;;;;;;;7.93;5.90;;;;;;;23.65;54.06;101137.06;7396803;19;20014;-66
2023/09/10 09:49:28;;;;;;;10.82;7.05;;;;;;;23.75;53.42;101137.28;7395042;19;20011;-67
2023/09/10 09:51:56;;;;;;;16.50;9.55;;;;;;;23.84;53.14;101139.28;7397430;19;20007;-67
2023/09/10 09:54:26;;;;;;;7.65;6.90;;;;;;;23.95;52.75;101135.88;7396504;19;20086;-66
2023/09/10 09:56:55;;;;;;;10.50;7.32;;;;;;;24.05;52.62;101138.75;7394391;19;20541;-66
2023/09/10 09:59:23;;;;;;;7.70;6.45;;;;;;;24.17;51.66;101131.66;7394418;19;20019;-66
2023/09/10 10:01:54;;;;;;;11.15;6.53;;;;;;;24.28;51.67;101133.56;7394638;19;20014;-67
2023/09/10 10:04:23;;;;;;;11.80;6.50;;;;;;;24.36;51.26;101129.31;7395458;19;20481;-66
2023/09/10 10:06:52;;;;;;;8.35;6.35;;;;;;;24.44;51.10;101134.13;7396036;19;20015;-66
2023/09/10 10:09:21;;;;;;;7.63;5.90;;;;;;;24.54;50.64;101134.28;7396024;19;20406;-66
2023/09/10 10:11:50;;;;;;;9.60;6.38;;;;;;;24.62;50.29;101133.69;7396038;19;20010;-67
2023/09/10 10:14:21;;;;;;;7.28;5.80;;;;;;;24.69;49.68;101121.56;7395265;19;20496;-66
2023/09/10 10:16:51;;;;;;;7.28;5.57;;;;;;;24.78;49.46;101128.06;7393934;19;20034;-66
2023/09/10 10:19:23;;;;;;;8.48;5.72;;;;;;;24.84;49.33;101125.75;7395261;19;20502;-66
2023/09/10 10:21:55;;;;;;;8.40;5.80;;;;;;;24.92;48.73;101125.19;7393258;19;20382;-66
2023/09/10 10:24:24;;;;;;;7.38;6.20;;;;;;;25.00;48.60;101122.75;7393543;19;20038;-69
2023/09/10 10:26:54;;;;;;;10.25;7.03;;;;;;;25.09;48.44;101118.50;7395325;19;20018;-66
2023/09/10 10:29:25;;;;;;;9.35;6.60;;;;;;;25.19;47.88;101121.34;7393559;19;20010;-67
2023/09/10 10:32:03;;;;;;;10.00;6.20;;;;;;;25.28;48.05;101112.56;7395382;19;20018;-67
2023/09/10 10:34:39;;;;;;;9.02;6.78;;;;;;;25.36;47.99;101115.56;7394949;19;20023;-67
2023/09/10 10:37:17;;;;;;;7.32;6.18;;;;;;;25.47;47.59;101105.78;7394249;19;20020;-67
2023/09/10 10:39:56;;;;;;;7.55;6.15;;;;;;;25.57;47.32;101111.28;7392783;19;20495;-67
2023/09/10 10:42:43;;;;;;;7.05;4.40;;;;;;;25.66;41.68;101106.00;7395215;19;20015;-66
2023/09/10 10:45:15;;;;;;;5.68;4.28;;;;;;;25.76;42.67;101100.75;7393746;19;20502;-66
2023/09/10 10:47:45;;;;;;;7.07;4.70;;;;;;;25.84;41.07;101102.81;7395165;19;20010;-66
2023/09/10 10:50:23;;;;;;;6.90;4.07;;;;;;;25.99;39.67;101100.72;7392586;19;20011;-65
2023/09/10 10:52:58;;;;;;;4.75;4.07;;;;;;;26.10;39.52;101103.41;7394887;19;20360;-66
2023/09/10 10:55:28;;;;;;;7.63;4.28;;;;;;;26.18;39.56;101095.59;7393143;19;20025;-67
2023/09/10 10:57:57;;;;;;;5.88;4.57;;;;;;;26.24;38.90;101098.75;7392570;19;20006;-68
2023/09/10 11:00:26;;;;;;;8.88;5.00;;;;;;;26.29;38.89;101094.69;7394509;19;20022;-68
2023/09/10 11:03:11;;;;;;;8.50;5.55;;;;;;;26.36;38.14;101091.47;7394777;19;20499;-70
2023/09/10 11:06:07;;;;;;;7.85;4.97;;;;;;;26.47;38.65;101096.81;7392645;19;20006;-66
2023/09/10 11:08:38;;;;;;;6.63;5.78;;;;;;;26.56;38.83;101090.66;7391673;19;20035;-65
2023/09/10 11:11:08;;;;;;;4.95;4.45;;;;;;;26.64;38.34;101087.31;7394593;19;20090;-66
2023/09/10 11:14:00;;;;;;;4.63;4.13;;;;;;;26.70;37.60;101084.09;7394116;19;20030;-67
2023/09/10 11:16:31;;;;;;;5.95;4.30;;;;;;;26.77;37.84;101087.19;7393217;19;20340;-66
2023/09/10 11:19:00;;;;;;;7.85;4.18;;;;;;;26.82;37.21;101088.47;7391461;19;20082;-67
2023/09/10 11:21:58;;;;;;;5.82;4.45;;;;;;;26.88;36.84;101088.94;7393604;19;20010;-65
2023/09/10 11:24:35;;;;;;;9.15;4.28;;;;;;;26.95;37.05;101095.50;7391212;19;20011;-66